sensor_id;sensor_type;location;lat;lon;timestamp;P1;durP1;ratioP1;P2;durP2;ratioP2
10653;SDS011;5375;51.250;6.776;2023-07-13T00:02:06;3.30;;;1.13;;
10653;SDS011;5375;51.250;6.776;2023-07-13T00:04:32;2.85;;;1.20;;
10653;SDS011;5375;51.250;6.776;2023-07-13T00:06:58;2.67;;;1.20;;
10653;SDS011;5375;51.250;6.776;2023-07-13T00:09:24;2.22;;;1.30;;
10653;SDS011;5375;51.250;6.776;2023-07-13T00:11:51;2.58;;;1.27;;
10653;SDS011;5375;51.250;6.776;2023-07-13T00:14:18;2.92;;;1.02;;
10653;SDS011;5375;51.250;6.776;2023-07-13T00:16:44;4.15;;;1.08;;
10653;SDS011;5375;51.250;6.776;2023-07-13T00:19:10;3.45;;;1.17;;
10653;SDS011;5375;51.250;6.776;2023-07-13T00:21:38;3.40;;;1.30;;
10653;SDS011;5375;51.250;6.776;2023-07-13T00:24:05;2.72;;;1.00;;
10653;SDS011;5375;51.250;6.776;2023-07-13T00:26:31;2.05;;;1.20;;
10653;SDS011;5375;51.250;6.776;2023-07-13T00:28:57;1.90;;;1.10;;
10653;SDS011;5375;51.250;6.776;2023-07-13T00:31:24;3.88;;;1.25;;
10653;SDS011;5375;51.250;6.776;2023-07-13T00:33:50;3.60;;;1.00;;
10653;SDS011;5375;51.250;6.776;2023-07-13T00:36:16;3.00;;;1.20;;
10653;SDS011;5375;51.250;6.776;2023-07-13T00:38:42;2.80;;;1.15;;
10653;SDS011;5375;51.250;6.776;2023-07-13T00:41:08;1.85;;;0.90;;
10653;SDS011;5375;51.250;6.776;2023-07-13T00:43:35;2.63;;;1.30;;
10653;SDS011;5375;51.250;6.776;2023-07-13T00:48:27;4.10;;;1.10;;
10653;SDS011;5375;51.250;6.776;2023-07-13T00:50:59;2.30;;;1.02;;
10653;SDS011;5375;51.250;6.776;2023-07-13T00:53:26;2.25;;;1.10;;
10653;SDS011;5375;51.250;6.776;2023-07-13T00:55:53;4.10;;;1.20;;
10653;SDS011;5375;51.250;6.776;2023-07-13T00:58:21;3.25;;;1.20;;
10653;SDS011;5375;51.250;6.776;2023-07-13T01:00:48;2.67;;;1.05;;
10653;SDS011;5375;51.250;6.776;2023-07-13T01:03:15;2.67;;;1.23;;
10653;SDS011;5375;51.250;6.776;2023-07-13T01:05:41;1.90;;;1.27;;
10653;SDS011;5375;51.250;6.776;2023-07-13T01:08:08;2.47;;;1.10;;
10653;SDS011;5375;51.250;6.776;2023-07-13T01:10:34;2.33;;;1.08;;
10653;SDS011;5375;51.250;6.776;2023-07-13T01:13:03;2.72;;;1.17;;
10653;SDS011;5375;51.250;6.776;2023-07-13T01:15:43;3.63;;;1.38;;
10653;SDS011;5375;51.250;6.776;2023-07-13T01:18:12;1.75;;;0.80;;
10653;SDS011;5375;51.250;6.776;2023-07-13T01:23:26;5.22;;;1.35;;
10653;SDS011;5375;51.250;6.776;2023-07-13T01:25:53;4.10;;;1.50;;
10653;SDS011;5375;51.250;6.776;2023-07-13T01:28:20;3.03;;;1.23;;
10653;SDS011;5375;51.250;6.776;2023-07-13T01:30:47;4.57;;;1.33;;
10653;SDS011;5375;51.250;6.776;2023-07-13T01:33:13;3.50;;;1.10;;
10653;SDS011;5375;51.250;6.776;2023-07-13T01:35:41;3.78;;;0.90;;
10653;SDS011;5375;51.250;6.776;2023-07-13T01:38:07;3.80;;;1.67;;
10653;SDS011;5375;51.250;6.776;2023-07-13T01:40:33;3.25;;;1.00;;
10653;SDS011;5375;51.250;6.776;2023-07-13T01:43:01;2.80;;;1.00;;
10653;SDS011;5375;51.250;6.776;2023-07-13T01:45:26;3.13;;;1.15;;
10653;SDS011;5375;51.250;6.776;2023-07-13T01:47:52;3.40;;;1.20;;
10653;SDS011;5375;51.250;6.776;2023-07-13T01:50:18;3.92;;;1.17;;
10653;SDS011;5375;51.250;6.776;2023-07-13T01:52:44;2.53;;;1.10;;
10653;SDS011;5375;51.250;6.776;2023-07-13T01:55:10;2.90;;;1.15;;
10653;SDS011;5375;51.250;6.776;2023-07-13T01:57:36;2.00;;;1.00;;
10653;SDS011;5375;51.250;6.776;2023-07-13T02:00:06;2.00;;;1.00;;
10653;SDS011;5375;51.250;6.776;2023-07-13T02:02:34;3.58;;;1.17;;
10653;SDS011;5375;51.250;6.776;2023-07-13T02:05:00;4.75;;;1.27;;
10653;SDS011;5375;51.250;6.776;2023-07-13T02:07:26;2.50;;;1.15;;
10653;SDS011;5375;51.250;6.776;2023-07-13T02:09:53;2.97;;;1.38;;
10653;SDS011;5375;51.250;6.776;2023-07-13T02:12:19;3.58;;;1.23;;
10653;SDS011;5375;51.250;6.776;2023-07-13T02:14:45;2.03;;;1.17;;
10653;SDS011;5375;51.250;6.776;2023-07-13T02:17:11;3.85;;;1.10;;
10653;SDS011;5375;51.250;6.776;2023-07-13T02:19:37;3.95;;;1.45;;
10653;SDS011;5375;51.250;6.776;2023-07-13T02:22:02;4.22;;;1.13;;
10653;SDS011;5375;51.250;6.776;2023-07-13T02:24:28;2.00;;;1.05;;
10653;SDS011;5375;51.250;6.776;2023-07-13T02:26:54;2.95;;;1.33;;
10653;SDS011;5375;51.250;6.776;2023-07-13T02:29:20;1.83;;;1.15;;
10653;SDS011;5375;51.250;6.776;2023-07-13T02:31:46;2.25;;;0.90;;
10653;SDS011;5375;51.250;6.776;2023-07-13T02:34:11;2.90;;;1.10;;
10653;SDS011;5375;51.250;6.776;2023-07-13T02:36:37;3.35;;;1.20;;
10653;SDS011;5375;51.250;6.776;2023-07-13T02:39:04;3.22;;;1.30;;
10653;SDS011;5375;51.250;6.776;2023-07-13T02:41:31;1.90;;;1.10;;
10653;SDS011;5375;51.250;6.776;2023-07-13T02:44:00;3.25;;;1.00;;
10653;SDS011;5375;51.250;6.776;2023-07-13T02:46:30;5.07;;;1.20;;
10653;SDS011;5375;51.250;6.776;2023-07-13T02:48:56;2.85;;;1.20;;
10653;SDS011;5375;51.250;6.776;2023-07-13T02:51:22;2.80;;;1.40;;
10653;SDS011;5375;51.250;6.776;2023-07-13T02:53:48;3.90;;;1.10;;
10653;SDS011;5375;51.250;6.776;2023-07-13T02:56:14;3.97;;;1.17;;
10653;SDS011;5375;51.250;6.776;2023-07-13T02:58:40;2.65;;;1.02;;
10653;SDS011;5375;51.250;6.776;2023-07-13T03:01:10;3.08;;;1.13;;
10653;SDS011;5375;51.250;6.776;2023-07-13T03:03:36;2.75;;;1.13;;
10653;SDS011;5375;51.250;6.776;2023-07-13T03:06:03;1.95;;;1.17;;
10653;SDS011;5375;51.250;6.776;2023-07-13T03:08:30;2.05;;;0.90;;
10653;SDS011;5375;51.250;6.776;2023-07-13T03:10:59;2.20;;;1.00;;
10653;SDS011;5375;51.250;6.776;2023-07-13T03:13:26;2.05;;;0.98;;
10653;SDS011;5375;51.250;6.776;2023-07-13T03:15:52;4.55;;;1.13;;
10653;SDS011;5375;51.250;6.776;2023-07-13T03:18:18;3.95;;;1.20;;
10653;SDS011;5375;51.250;6.776;2023-07-13T03:20:44;2.40;;;1.00;;
10653;SDS011;5375;51.250;6.776;2023-07-13T03:23:10;2.53;;;1.00;;
10653;SDS011;5375;51.250;6.776;2023-07-13T03:25:36;4.90;;;1.60;;
10653;SDS011;5375;51.250;6.776;2023-07-13T03:28:02;2.80;;;1.20;;
10653;SDS011;5375;51.250;6.776;2023-07-13T03:30:29;2.05;;;1.10;;
10653;SDS011;5375;51.250;6.776;2023-07-13T03:32:55;2.85;;;1.02;;
10653;SDS011;5375;51.250;6.776;2023-07-13T03:35:20;3.35;;;1.15;;
10653;SDS011;5375;51.250;6.776;2023-07-13T03:37:46;4.03;;;1.20;;
10653;SDS011;5375;51.250;6.776;2023-07-13T03:40:12;3.30;;;1.38;;
10653;SDS011;5375;51.250;6.776;2023-07-13T03:42:38;5.10;;;1.30;;
10653;SDS011;5375;51.250;6.776;2023-07-13T03:45:04;2.67;;;1.15;;
10653;SDS011;5375;51.250;6.776;2023-07-13T03:47:30;2.15;;;1.10;;
10653;SDS011;5375;51.250;6.776;2023-07-13T03:49:56;3.30;;;1.10;;
10653;SDS011;5375;51.250;6.776;2023-07-13T03:52:22;2.90;;;1.10;;
10653;SDS011;5375;51.250;6.776;2023-07-13T03:54:48;2.67;;;0.90;;
10653;SDS011;5375;51.250;6.776;2023-07-13T03:57:14;3.20;;;0.90;;
10653;SDS011;5375;51.250;6.776;2023-07-13T03:59:40;3.17;;;1.08;;
10653;SDS011;5375;51.250;6.776;2023-07-13T04:02:07;2.30;;;1.30;;
10653;SDS011;5375;51.250;6.776;2023-07-13T04:04:33;2.55;;;0.95;;
10653;SDS011;5375;51.250;6.776;2023-07-13T04:06:58;5.20;;;1.10;;
10653;SDS011;5375;51.250;6.776;2023-07-13T04:09:24;2.53;;;1.20;;
10653;SDS011;5375;51.250;6.776;2023-07-13T04:11:50;3.40;;;1.10;;
10653;SDS011;5375;51.250;6.776;2023-07-13T04:14:16;4.75;;;1.42;;
10653;SDS011;5375;51.250;6.776;2023-07-13T04:16:42;4.90;;;1.38;;
10653;SDS011;5375;51.250;6.776;2023-07-13T04:19:08;3.67;;;1.40;;
10653;SDS011;5375;51.250;6.776;2023-07-13T04:21:35;1.50;;;1.08;;
10653;SDS011;5375;51.250;6.776;2023-07-13T04:24:02;2.25;;;1.02;;
10653;SDS011;5375;51.250;6.776;2023-07-13T04:26:28;2.58;;;1.00;;
10653;SDS011;5375;51.250;6.776;2023-07-13T04:28:54;2.45;;;1.05;;
10653;SDS011;5375;51.250;6.776;2023-07-13T04:31:21;14.32;;;1.85;;
10653;SDS011;5375;51.250;6.776;2023-07-13T04:33:46;3.30;;;1.40;;
10653;SDS011;5375;51.250;6.776;2023-07-13T04:36:13;2.67;;;1.20;;
10653;SDS011;5375;51.250;6.776;2023-07-13T04:38:39;4.22;;;1.40;;
10653;SDS011;5375;51.250;6.776;2023-07-13T04:41:06;1.55;;;0.90;;
10653;SDS011;5375;51.250;6.776;2023-07-13T04:43:33;3.05;;;1.00;;
10653;SDS011;5375;51.250;6.776;2023-07-13T04:46:09;2.80;;;1.10;;
10653;SDS011;5375;51.250;6.776;2023-07-13T04:48:36;4.32;;;1.10;;
10653;SDS011;5375;51.250;6.776;2023-07-13T04:51:02;1.92;;;0.90;;
10653;SDS011;5375;51.250;6.776;2023-07-13T04:53:28;2.58;;;1.15;;
10653;SDS011;5375;51.250;6.776;2023-07-13T04:55:55;2.85;;;1.00;;
10653;SDS011;5375;51.250;6.776;2023-07-13T04:58:21;3.88;;;1.20;;
10653;SDS011;5375;51.250;6.776;2023-07-13T05:00:47;2.60;;;1.20;;
10653;SDS011;5375;51.250;6.776;2023-07-13T05:03:13;3.95;;;1.30;;
10653;SDS011;5375;51.250;6.776;2023-07-13T05:05:39;4.60;;;1.23;;
10653;SDS011;5375;51.250;6.776;2023-07-13T05:08:08;5.00;;;1.60;;
10653;SDS011;5375;51.250;6.776;2023-07-13T05:10:34;2.83;;;0.95;;
10653;SDS011;5375;51.250;6.776;2023-07-13T05:13:00;3.17;;;1.20;;
10653;SDS011;5375;51.250;6.776;2023-07-13T05:15:26;4.85;;;1.33;;
10653;SDS011;5375;51.250;6.776;2023-07-13T05:17:52;2.75;;;1.20;;
10653;SDS011;5375;51.250;6.776;2023-07-13T05:20:19;6.75;;;1.40;;
10653;SDS011;5375;51.250;6.776;2023-07-13T05:22:45;3.28;;;1.10;;
10653;SDS011;5375;51.250;6.776;2023-07-13T05:25:15;3.13;;;1.17;;
10653;SDS011;5375;51.250;6.776;2023-07-13T05:27:41;3.33;;;1.02;;
10653;SDS011;5375;51.250;6.776;2023-07-13T05:30:07;3.22;;;1.17;;
10653;SDS011;5375;51.250;6.776;2023-07-13T05:32:36;2.22;;;1.30;;
10653;SDS011;5375;51.250;6.776;2023-07-13T05:35:02;3.50;;;1.20;;
10653;SDS011;5375;51.250;6.776;2023-07-13T05:37:28;5.82;;;1.35;;
10653;SDS011;5375;51.250;6.776;2023-07-13T05:39:54;5.20;;;1.38;;
10653;SDS011;5375;51.250;6.776;2023-07-13T05:42:19;6.57;;;1.80;;
10653;SDS011;5375;51.250;6.776;2023-07-13T05:44:45;3.67;;;1.33;;
10653;SDS011;5375;51.250;6.776;2023-07-13T05:47:12;3.20;;;1.30;;
10653;SDS011;5375;51.250;6.776;2023-07-13T05:49:39;2.80;;;1.40;;
10653;SDS011;5375;51.250;6.776;2023-07-13T05:52:04;3.47;;;1.23;;
10653;SDS011;5375;51.250;6.776;2023-07-13T05:54:31;3.47;;;1.40;;
10653;SDS011;5375;51.250;6.776;2023-07-13T05:56:57;2.88;;;1.77;;
10653;SDS011;5375;51.250;6.776;2023-07-13T05:59:22;4.45;;;1.52;;
10653;SDS011;5375;51.250;6.776;2023-07-13T06:01:49;4.28;;;1.67;;
10653;SDS011;5375;51.250;6.776;2023-07-13T06:04:17;4.53;;;1.73;;
10653;SDS011;5375;51.250;6.776;2023-07-13T06:06:43;5.13;;;1.73;;
10653;SDS011;5375;51.250;6.776;2023-07-13T06:09:09;4.43;;;1.90;;
10653;SDS011;5375;51.250;6.776;2023-07-13T06:11:35;3.80;;;1.67;;
10653;SDS011;5375;51.250;6.776;2023-07-13T06:14:01;3.88;;;1.55;;
10653;SDS011;5375;51.250;6.776;2023-07-13T06:16:27;6.30;;;1.77;;
10653;SDS011;5375;51.250;6.776;2023-07-13T06:18:53;4.15;;;1.63;;
10653;SDS011;5375;51.250;6.776;2023-07-13T06:21:19;3.45;;;1.55;;
10653;SDS011;5375;51.250;6.776;2023-07-13T06:23:48;2.90;;;1.35;;
10653;SDS011;5375;51.250;6.776;2023-07-13T06:26:15;6.25;;;1.83;;
10653;SDS011;5375;51.250;6.776;2023-07-13T06:28:45;5.68;;;1.70;;
10653;SDS011;5375;51.250;6.776;2023-07-13T06:31:11;6.57;;;2.03;;
10653;SDS011;5375;51.250;6.776;2023-07-13T06:33:38;3.00;;;2.13;;
10653;SDS011;5375;51.250;6.776;2023-07-13T06:36:05;4.63;;;1.98;;
10653;SDS011;5375;51.250;6.776;2023-07-13T06:38:32;5.85;;;2.10;;
10653;SDS011;5375;51.250;6.776;2023-07-13T06:40:58;6.60;;;2.00;;
10653;SDS011;5375;51.250;6.776;2023-07-13T06:43:24;4.35;;;1.65;;
10653;SDS011;5375;51.250;6.776;2023-07-13T06:45:51;8.13;;;2.33;;
10653;SDS011;5375;51.250;6.776;2023-07-13T06:48:17;4.57;;;1.90;;
10653;SDS011;5375;51.250;6.776;2023-07-13T06:50:44;5.85;;;1.88;;
10653;SDS011;5375;51.250;6.776;2023-07-13T06:53:11;6.18;;;2.20;;
10653;SDS011;5375;51.250;6.776;2023-07-13T06:55:37;6.97;;;2.55;;
10653;SDS011;5375;51.250;6.776;2023-07-13T06:58:04;6.18;;;2.15;;
10653;SDS011;5375;51.250;6.776;2023-07-13T07:00:29;8.18;;;2.28;;
10653;SDS011;5375;51.250;6.776;2023-07-13T07:02:56;12.60;;;2.80;;
10653;SDS011;5375;51.250;6.776;2023-07-13T07:05:22;7.60;;;2.25;;
10653;SDS011;5375;51.250;6.776;2023-07-13T07:07:49;8.90;;;2.40;;
10653;SDS011;5375;51.250;6.776;2023-07-13T07:10:14;6.80;;;2.35;;
10653;SDS011;5375;51.250;6.776;2023-07-13T07:12:41;5.15;;;2.50;;
10653;SDS011;5375;51.250;6.776;2023-07-13T07:15:07;7.75;;;2.47;;
10653;SDS011;5375;51.250;6.776;2023-07-13T07:17:33;7.25;;;2.30;;
10653;SDS011;5375;51.250;6.776;2023-07-13T07:19:59;4.75;;;2.33;;
10653;SDS011;5375;51.250;6.776;2023-07-13T07:22:25;6.53;;;2.35;;
10653;SDS011;5375;51.250;6.776;2023-07-13T07:24:52;5.88;;;2.30;;
10653;SDS011;5375;51.250;6.776;2023-07-13T07:27:18;5.15;;;1.92;;
10653;SDS011;5375;51.250;6.776;2023-07-13T07:29:44;5.28;;;2.17;;
10653;SDS011;5375;51.250;6.776;2023-07-13T07:32:10;8.23;;;2.83;;
10653;SDS011;5375;51.250;6.776;2023-07-13T07:34:36;7.85;;;2.67;;
10653;SDS011;5375;51.250;6.776;2023-07-13T07:37:03;7.03;;;2.20;;
10653;SDS011;5375;51.250;6.776;2023-07-13T07:39:28;6.20;;;2.47;;
10653;SDS011;5375;51.250;6.776;2023-07-13T07:41:54;6.22;;;2.70;;
10653;SDS011;5375;51.250;6.776;2023-07-13T07:44:20;6.15;;;2.30;;
10653;SDS011;5375;51.250;6.776;2023-07-13T07:46:46;5.78;;;2.70;;
10653;SDS011;5375;51.250;6.776;2023-07-13T07:49:12;5.95;;;2.45;;
10653;SDS011;5375;51.250;6.776;2023-07-13T07:51:38;7.55;;;2.53;;
10653;SDS011;5375;51.250;6.776;2023-07-13T07:54:04;6.32;;;2.60;;
10653;SDS011;5375;51.250;6.776;2023-07-13T07:56:30;6.97;;;2.75;;
10653;SDS011;5375;51.250;6.776;2023-07-13T07:58:56;5.13;;;2.58;;
10653;SDS011;5375;51.250;6.776;2023-07-13T08:01:22;5.93;;;2.45;;
10653;SDS011;5375;51.250;6.776;2023-07-13T08:03:48;5.47;;;2.10;;
10653;SDS011;5375;51.250;6.776;2023-07-13T08:06:13;6.93;;;2.45;;
10653;SDS011;5375;51.250;6.776;2023-07-13T08:08:40;7.55;;;2.40;;
10653;SDS011;5375;51.250;6.776;2023-07-13T08:11:06;6.35;;;2.50;;
10653;SDS011;5375;51.250;6.776;2023-07-13T08:13:33;7.85;;;2.47;;
10653;SDS011;5375;51.250;6.776;2023-07-13T08:15:59;5.22;;;2.13;;
10653;SDS011;5375;51.250;6.776;2023-07-13T08:18:25;6.28;;;2.28;;
10653;SDS011;5375;51.250;6.776;2023-07-13T08:20:53;4.93;;;2.40;;
10653;SDS011;5375;51.250;6.776;2023-07-13T08:23:21;8.75;;;2.40;;
10653;SDS011;5375;51.250;6.776;2023-07-13T08:25:51;7.00;;;2.95;;
10653;SDS011;5375;51.250;6.776;2023-07-13T08:28:17;5.05;;;2.30;;
10653;SDS011;5375;51.250;6.776;2023-07-13T08:30:43;5.70;;;2.78;;
10653;SDS011;5375;51.250;6.776;2023-07-13T08:33:09;8.32;;;2.67;;
10653;SDS011;5375;51.250;6.776;2023-07-13T08:35:35;5.70;;;2.20;;
10653;SDS011;5375;51.250;6.776;2023-07-13T08:38:00;6.75;;;2.30;;
10653;SDS011;5375;51.250;6.776;2023-07-13T08:40:27;6.40;;;2.35;;
10653;SDS011;5375;51.250;6.776;2023-07-13T08:42:54;9.13;;;3.10;;
10653;SDS011;5375;51.250;6.776;2023-07-13T08:47:50;8.25;;;2.50;;
10653;SDS011;5375;51.250;6.776;2023-07-13T08:50:19;4.78;;;2.50;;
10653;SDS011;5375;51.250;6.776;2023-07-13T08:52:49;8.95;;;2.33;;
10653;SDS011;5375;51.250;6.776;2023-07-13T08:55:16;5.25;;;2.40;;
10653;SDS011;5375;51.250;6.776;2023-07-13T08:57:48;6.65;;;2.67;;
10653;SDS011;5375;51.250;6.776;2023-07-13T09:00:19;7.00;;;2.38;;
10653;SDS011;5375;51.250;6.776;2023-07-13T09:02:56;10.30;;;2.38;;
10653;SDS011;5375;51.250;6.776;2023-07-13T09:05:28;8.85;;;2.60;;
10653;SDS011;5375;51.250;6.776;2023-07-13T09:13:30;7.53;;;2.67;;
10653;SDS011;5375;51.250;6.776;2023-07-13T09:15:59;6.45;;;2.42;;
10653;SDS011;5375;51.250;6.776;2023-07-13T09:18:32;5.63;;;2.25;;
10653;SDS011;5375;51.250;6.776;2023-07-13T09:21:05;7.45;;;2.50;;
10653;SDS011;5375;51.250;6.776;2023-07-13T09:23:58;6.85;;;2.10;;
10653;SDS011;5375;51.250;6.776;2023-07-13T09:26:27;7.20;;;2.00;;
10653;SDS011;5375;51.250;6.776;2023-07-13T09:28:58;8.05;;;2.53;;
10653;SDS011;5375;51.250;6.776;2023-07-13T09:31:45;6.97;;;2.70;;
10653;SDS011;5375;51.250;6.776;2023-07-13T09:34:15;8.15;;;2.33;;
10653;SDS011;5375;51.250;6.776;2023-07-13T09:36:42;6.60;;;2.33;;
10653;SDS011;5375;51.250;6.776;2023-07-13T09:44:42;5.10;;;2.17;;
10653;SDS011;5375;51.250;6.776;2023-07-13T09:47:15;5.35;;;2.22;;
10653;SDS011;5375;51.250;6.776;2023-07-13T09:49:48;4.43;;;1.95;;
10653;SDS011;5375;51.250;6.776;2023-07-13T09:52:23;5.65;;;2.40;;
10653;SDS011;5375;51.250;6.776;2023-07-13T09:54:50;7.13;;;2.40;;
10653;SDS011;5375;51.250;6.776;2023-07-13T09:57:19;9.68;;;2.67;;
10653;SDS011;5375;51.250;6.776;2023-07-13T09:59:49;4.50;;;2.20;;
10653;SDS011;5375;51.250;6.776;2023-07-13T10:02:29;6.68;;;2.45;;
10653;SDS011;5375;51.250;6.776;2023-07-13T10:05:04;5.68;;;2.35;;
10653;SDS011;5375;51.250;6.776;2023-07-13T10:07:44;6.35;;;2.25;;
10653;SDS011;5375;51.250;6.776;2023-07-13T10:10:20;8.10;;;2.22;;
10653;SDS011;5375;51.250;6.776;2023-07-13T10:12:48;5.78;;;2.20;;
10653;SDS011;5375;51.250;6.776;2023-07-13T10:15:15;4.55;;;2.58;;
10653;SDS011;5375;51.250;6.776;2023-07-13T10:17:46;5.72;;;2.47;;
10653;SDS011;5375;51.250;6.776;2023-07-13T10:20:12;5.05;;;2.35;;
10653;SDS011;5375;51.250;6.776;2023-07-13T10:25:21;6.22;;;2.13;;
10653;SDS011;5375;51.250;6.776;2023-07-13T10:27:50;7.32;;;2.00;;
10653;SDS011;5375;51.250;6.776;2023-07-13T10:30:22;6.88;;;2.60;;
10653;SDS011;5375;51.250;6.776;2023-07-13T10:32:53;5.38;;;2.15;;
10653;SDS011;5375;51.250;6.776;2023-07-13T10:35:20;4.38;;;2.38;;
10653;SDS011;5375;51.250;6.776;2023-07-13T10:37:49;4.78;;;1.92;;
10653;SDS011;5375;51.250;6.776;2023-07-13T10:40:23;5.68;;;2.30;;
10653;SDS011;5375;51.250;6.776;2023-07-13T10:42:55;3.20;;;1.80;;
10653;SDS011;5375;51.250;6.776;2023-07-13T10:45:24;4.65;;;2.08;;
10653;SDS011;5375;51.250;6.776;2023-07-13T10:47:52;8.18;;;2.67;;
10653;SDS011;5375;51.250;6.776;2023-07-13T10:50:24;4.75;;;1.88;;
10653;SDS011;5375;51.250;6.776;2023-07-13T10:52:53;6.25;;;2.10;;
10653;SDS011;5375;51.250;6.776;2023-07-13T10:55:31;4.70;;;2.50;;
10653;SDS011;5375;51.250;6.776;2023-07-13T10:58:19;6.10;;;2.30;;
10653;SDS011;5375;51.250;6.776;2023-07-13T11:03:31;8.75;;;2.30;;
10653;SDS011;5375;51.250;6.776;2023-07-13T11:06:44;4.18;;;2.00;;
10653;SDS011;5375;51.250;6.776;2023-07-13T11:08:57;6.78;;;2.40;;
10653;SDS011;5375;51.250;6.776;2023-07-13T11:21:33;5.40;;;1.88;;
10653;SDS011;5375;51.250;6.776;2023-07-13T11:31:40;3.47;;;1.80;;
10653;SDS011;5375;51.250;6.776;2023-07-13T11:34:13;4.03;;;1.90;;
10653;SDS011;5375;51.250;6.776;2023-07-13T11:36:42;4.07;;;1.95;;
10653;SDS011;5375;51.250;6.776;2023-07-13T11:39:24;4.65;;;1.60;;
10653;SDS011;5375;51.250;6.776;2023-07-13T11:42:03;5.45;;;1.60;;
10653;SDS011;5375;51.250;6.776;2023-07-13T11:44:33;4.35;;;1.80;;
10653;SDS011;5375;51.250;6.776;2023-07-13T11:47:01;5.13;;;1.77;;
10653;SDS011;5375;51.250;6.776;2023-07-13T11:49:43;2.85;;;1.50;;
10653;SDS011;5375;51.250;6.776;2023-07-13T11:52:14;2.50;;;1.60;;
10653;SDS011;5375;51.250;6.776;2023-07-13T11:54:49;4.60;;;1.92;;
10653;SDS011;5375;51.250;6.776;2023-07-13T11:57:26;5.13;;;1.60;;
10653;SDS011;5375;51.250;6.776;2023-07-13T11:59:56;3.88;;;1.75;;
10653;SDS011;5375;51.250;6.776;2023-07-13T12:02:37;5.68;;;1.60;;
10653;SDS011;5375;51.250;6.776;2023-07-13T12:05:06;3.83;;;1.63;;
10653;SDS011;5375;51.250;6.776;2023-07-13T12:07:37;5.97;;;1.75;;
10653;SDS011;5375;51.250;6.776;2023-07-13T12:10:23;4.88;;;1.80;;
10653;SDS011;5375;51.250;6.776;2023-07-13T12:13:01;3.58;;;1.83;;
10653;SDS011;5375;51.250;6.776;2023-07-13T12:15:39;3.38;;;1.63;;
10653;SDS011;5375;51.250;6.776;2023-07-13T12:18:16;5.35;;;1.63;;
10653;SDS011;5375;51.250;6.776;2023-07-13T12:20:45;2.90;;;1.55;;
10653;SDS011;5375;51.250;6.776;2023-07-13T12:23:31;4.78;;;1.55;;
10653;SDS011;5375;51.250;6.776;2023-07-13T12:25:59;3.13;;;1.30;;
10653;SDS011;5375;51.250;6.776;2023-07-13T12:31:00;4.82;;;1.90;;
10653;SDS011;5375;51.250;6.776;2023-07-13T12:33:30;3.50;;;1.58;;
10653;SDS011;5375;51.250;6.776;2023-07-13T12:35:57;2.85;;;1.70;;
10653;SDS011;5375;51.250;6.776;2023-07-13T12:38:26;4.00;;;1.50;;
10653;SDS011;5375;51.250;6.776;2023-07-13T12:40:53;3.58;;;1.90;;
10653;SDS011;5375;51.250;6.776;2023-07-13T12:43:19;5.15;;;1.80;;
10653;SDS011;5375;51.250;6.776;2023-07-13T12:46:01;7.07;;;1.80;;
10653;SDS011;5375;51.250;6.776;2023-07-13T12:48:30;4.93;;;1.77;;
10653;SDS011;5375;51.250;6.776;2023-07-13T12:51:03;4.63;;;1.63;;
10653;SDS011;5375;51.250;6.776;2023-07-13T12:53:29;3.33;;;1.48;;
10653;SDS011;5375;51.250;6.776;2023-07-13T12:55:59;4.55;;;1.52;;
10653;SDS011;5375;51.250;6.776;2023-07-13T12:58:29;3.53;;;1.52;;
10653;SDS011;5375;51.250;6.776;2023-07-13T13:00:59;3.17;;;1.48;;
10653;SDS011;5375;51.250;6.776;2023-07-13T13:06:02;6.80;;;1.40;;
10653;SDS011;5375;51.250;6.776;2023-07-13T13:08:30;2.53;;;1.35;;
10653;SDS011;5375;51.250;6.776;2023-07-13T13:10:56;3.30;;;1.42;;
10653;SDS011;5375;51.250;6.776;2023-07-13T13:13:22;2.85;;;1.48;;
10653;SDS011;5375;51.250;6.776;2023-07-13T13:15:48;4.43;;;1.45;;
10653;SDS011;5375;51.250;6.776;2023-07-13T13:18:17;3.20;;;1.65;;
10653;SDS011;5375;51.250;6.776;2023-07-13T13:20:45;2.85;;;1.58;;
10653;SDS011;5375;51.250;6.776;2023-07-13T13:23:15;2.40;;;1.27;;
10653;SDS011;5375;51.250;6.776;2023-07-13T13:25:43;4.47;;;1.40;;
10653;SDS011;5375;51.250;6.776;2023-07-13T13:28:14;3.15;;;1.48;;
10653;SDS011;5375;51.250;6.776;2023-07-13T13:30:42;4.28;;;1.60;;
10653;SDS011;5375;51.250;6.776;2023-07-13T13:33:11;5.10;;;1.75;;
10653;SDS011;5375;51.250;6.776;2023-07-13T13:35:39;2.85;;;1.50;;
10653;SDS011;5375;51.250;6.776;2023-07-13T13:38:13;5.28;;;1.80;;
10653;SDS011;5375;51.250;6.776;2023-07-13T13:40:41;5.05;;;1.70;;
10653;SDS011;5375;51.250;6.776;2023-07-13T13:43:18;2.55;;;1.20;;
10653;SDS011;5375;51.250;6.776;2023-07-13T13:45:51;3.50;;;1.67;;
10653;SDS011;5375;51.250;6.776;2023-07-13T13:48:18;3.20;;;1.67;;
10653;SDS011;5375;51.250;6.776;2023-07-13T13:50:55;3.30;;;1.30;;
10653;SDS011;5375;51.250;6.776;2023-07-13T13:53:21;3.97;;;1.70;;
10653;SDS011;5375;51.250;6.776;2023-07-13T13:55:48;4.60;;;1.60;;
10653;SDS011;5375;51.250;6.776;2023-07-13T13:58:14;4.50;;;1.35;;
10653;SDS011;5375;51.250;6.776;2023-07-13T14:00:40;2.55;;;1.45;;
10653;SDS011;5375;51.250;6.776;2023-07-13T14:03:16;3.03;;;1.15;;
10653;SDS011;5375;51.250;6.776;2023-07-13T14:05:43;2.97;;;1.30;;
10653;SDS011;5375;51.250;6.776;2023-07-13T14:08:12;2.47;;;1.30;;
10653;SDS011;5375;51.250;6.776;2023-07-13T14:10:40;2.30;;;1.40;;
10653;SDS011;5375;51.250;6.776;2023-07-13T14:13:07;2.13;;;1.30;;
10653;SDS011;5375;51.250;6.776;2023-07-13T14:15:45;3.13;;;1.50;;
10653;SDS011;5375;51.250;6.776;2023-07-13T14:18:10;2.78;;;1.50;;
10653;SDS011;5375;51.250;6.776;2023-07-13T14:20:37;3.85;;;1.85;;
10653;SDS011;5375;51.250;6.776;2023-07-13T14:23:03;3.50;;;1.70;;
10653;SDS011;5375;51.250;6.776;2023-07-13T14:25:28;5.13;;;1.50;;
10653;SDS011;5375;51.250;6.776;2023-07-13T14:27:58;4.30;;;1.50;;
10653;SDS011;5375;51.250;6.776;2023-07-13T14:30:25;4.68;;;1.63;;
10653;SDS011;5375;51.250;6.776;2023-07-13T14:32:51;2.28;;;1.20;;
10653;SDS011;5375;51.250;6.776;2023-07-13T14:35:18;5.57;;;1.70;;
10653;SDS011;5375;51.250;6.776;2023-07-13T14:37:46;4.55;;;1.67;;
10653;SDS011;5375;51.250;6.776;2023-07-13T14:42:38;4.15;;;1.48;;
10653;SDS011;5375;51.250;6.776;2023-07-13T14:45:04;4.60;;;1.50;;
10653;SDS011;5375;51.250;6.776;2023-07-13T14:47:30;5.47;;;1.65;;
10653;SDS011;5375;51.250;6.776;2023-07-13T14:49:56;6.18;;;1.60;;
10653;SDS011;5375;51.250;6.776;2023-07-13T14:52:22;2.63;;;1.50;;
10653;SDS011;5375;51.250;6.776;2023-07-13T14:54:49;3.17;;;1.40;;
10653;SDS011;5375;51.250;6.776;2023-07-13T14:57:18;2.92;;;1.20;;
10653;SDS011;5375;51.250;6.776;2023-07-13T14:59:45;2.40;;;1.13;;
10653;SDS011;5375;51.250;6.776;2023-07-13T15:02:18;2.67;;;1.35;;
10653;SDS011;5375;51.250;6.776;2023-07-13T15:04:50;3.13;;;1.55;;
10653;SDS011;5375;51.250;6.776;2023-07-13T15:07:16;2.47;;;1.33;;
10653;SDS011;5375;51.250;6.776;2023-07-13T15:09:43;2.80;;;1.40;;
10653;SDS011;5375;51.250;6.776;2023-07-13T15:12:09;2.85;;;1.30;;
10653;SDS011;5375;51.250;6.776;2023-07-13T15:14:35;2.15;;;1.30;;
10653;SDS011;5375;51.250;6.776;2023-07-13T15:17:01;3.42;;;1.30;;
10653;SDS011;5375;51.250;6.776;2023-07-13T15:19:26;1.88;;;1.02;;
10653;SDS011;5375;51.250;6.776;2023-07-13T15:21:53;2.13;;;1.20;;
10653;SDS011;5375;51.250;6.776;2023-07-13T15:24:22;1.98;;;1.33;;
10653;SDS011;5375;51.250;6.776;2023-07-13T15:26:48;1.58;;;1.10;;
10653;SDS011;5375;51.250;6.776;2023-07-13T15:29:14;1.90;;;1.17;;
10653;SDS011;5375;51.250;6.776;2023-07-13T15:31:40;2.28;;;1.17;;
10653;SDS011;5375;51.250;6.776;2023-07-13T15:34:14;1.88;;;1.10;;
10653;SDS011;5375;51.250;6.776;2023-07-13T15:36:41;3.00;;;1.20;;
10653;SDS011;5375;51.250;6.776;2023-07-13T15:39:08;1.20;;;1.10;;
10653;SDS011;5375;51.250;6.776;2023-07-13T15:41:40;2.47;;;1.10;;
10653;SDS011;5375;51.250;6.776;2023-07-13T15:44:18;2.08;;;1.05;;
10653;SDS011;5375;51.250;6.776;2023-07-13T15:46:45;2.53;;;1.00;;
10653;SDS011;5375;51.250;6.776;2023-07-13T15:49:11;1.63;;;1.05;;
10653;SDS011;5375;51.250;6.776;2023-07-13T15:51:37;1.35;;;0.90;;
10653;SDS011;5375;51.250;6.776;2023-07-13T15:54:03;3.13;;;1.30;;
10653;SDS011;5375;51.250;6.776;2023-07-13T15:56:32;1.85;;;1.00;;